Time;durP1;ratioP1;P1;durP2;ratioP2;P2;SDS_P1;SDS_P2;PMS_P1;PMS_P2;Temp;Humidity;BMP_temperature;BMP_pressure;BME280_temperature;BME280_humidity;BME280_pressure;Samples;Min_cycle;Max_cycle;Signal;HPM_P1;HPM_P2
2022/03/22 00:01:27;;;;;;;40.45;21.85;;;;;;;;;;5035878;27;97339;-77
2022/03/22 00:03:53;;;;;;;46.50;22.58;;;;;;;;;;5037729;27;96887;-76
2022/03/22 00:06:20;;;;;;;49.17;24.40;;;;;;;;;;5038469;27;97280;-78
2022/03/22 00:08:47;;;;;;;44.38;22.88;;;;;;;;;;5046560;27;95694;-78
2022/03/22 00:11:13;;;;;;;59.85;22.88;;;;;;;;;;5043194;27;97197;-75
2022/03/22 00:13:42;;;;;;;48.33;23.35;;;;;;;;;;5031034;27;97350;-75
2022/03/22 00:16:09;;;;;;;44.40;23.45;;;;;;;;;;5032292;27;95151;-74
2022/03/22 00:18:55;;;;;;;42.17;23.23;;;;;;;;;;5032999;27;96446;-76
2022/03/22 00:21:21;;;;;;;55.17;22.73;;;;;;;;;;5027905;27;97110;-76
2022/03/22 00:23:48;;;;;;;43.10;23.45;;;;;;;;;;5038206;27;95792;-73
2022/03/22 00:26:14;;;;;;;42.25;23.00;;;;;;;;;;5032735;27;97317;-76
2022/03/22 00:28:40;;;;;;;45.17;23.90;;;;;;;;;;5034571;27;95816;-76
2022/03/22 00:31:07;;;;;;;39.97;22.50;;;;;;;;;;5045321;27;96808;-73
2022/03/22 00:33:34;;;;;;;42.33;23.15;;;;;;;;;;5031098;27;96224;-74
2022/03/22 00:36:00;;;;;;;48.08;22.50;;;;;;;;;;5026685;27;95659;-76
2022/03/22 00:38:26;;;;;;;47.88;23.23;;;;;;;;;;5027564;27;96713;-76
2022/03/22 00:40:53;;;;;;;43.45;23.13;;;;;;;;;;5030679;27;97526;-74
2022/03/22 00:43:19;;;;;;;46.08;22.88;;;;;;;;;;5035364;27;95594;-75
2022/03/22 00:45:47;;;;;;;48.55;24.85;;;;;;;;;;5033001;27;96846;-72
2022/03/22 00:48:14;;;;;;;45.15;23.80;;;;;;;;;;5029626;27;95188;-73
2022/03/22 00:50:43;;;;;;;46.58;24.63;;;;;;;;;;5029603;27;96881;-73
2022/03/22 00:53:09;;;;;;;51.40;23.83;;;;;;;;;;5029601;27;97270;-72
2022/03/22 00:55:36;;;;;;;51.15;25.55;;;;;;;;;;5029718;28;95534;-72
2022/03/22 00:58:03;;;;;;;49.72;26.52;;;;;;;;;;5029367;28;96825;-74
2022/03/22 01:00:29;;;;;;;46.47;25.38;;;;;;;;;;5030060;27;96568;-77
2022/03/22 01:02:58;;;;;;;55.40;26.08;;;;;;;;;;5030223;28;96781;-75
2022/03/22 01:05:25;;;;;;;43.55;23.88;;;;;;;;;;5029761;27;96920;-75
2022/03/22 01:07:55;;;;;;;49.40;26.20;;;;;;;;;;5033114;28;97431;-76
2022/03/22 01:10:23;;;;;;;49.65;24.60;;;;;;;;;;5017486;28;96851;-74
2022/03/22 01:12:49;;;;;;;52.53;25.25;;;;;;;;;;5025591;28;97634;-76
2022/03/22 01:15:15;;;;;;;50.90;25.35;;;;;;;;;;5033825;27;95583;-77
2022/03/22 01:17:42;;;;;;;51.30;26.05;;;;;;;;;;5041392;27;96929;-73
2022/03/22 01:20:10;;;;;;;43.45;24.88;;;;;;;;;;5031183;27;97300;-74
2022/03/22 01:22:45;;;;;;;48.30;26.10;;;;;;;;;;5028077;27;95397;-74
2022/03/22 01:25:13;;;;;;;48.55;24.38;;;;;;;;;;5035507;27;96851;-72
2022/03/22 01:27:40;;;;;;;53.35;26.33;;;;;;;;;;5026111;27;97326;-73
2022/03/22 01:30:07;;;;;;;52.47;26.58;;;;;;;;;;5044340;27;97132;-73
2022/03/22 01:32:34;;;;;;;51.28;27.02;;;;;;;;;;5030941;27;97402;-73
2022/03/22 01:35:01;;;;;;;47.25;24.20;;;;;;;;;;5028622;27;95882;-74
2022/03/22 01:37:27;;;;;;;52.10;26.17;;;;;;;;;;5035309;27;96817;-73
2022/03/22 01:39:54;;;;;;;47.03;24.63;;;;;;;;;;5033886;27;97393;-73
2022/03/22 01:42:21;;;;;;;51.10;26.02;;;;;;;;;;5040950;27;95850;-77
2022/03/22 01:44:49;;;;;;;54.40;27.55;;;;;;;;;;5036643;27;96778;-73
2022/03/22 01:47:16;;;;;;;54.72;26.50;;;;;;;;;;5029964;27;97259;-73
2022/03/22 01:49:43;;;;;;;51.42;26.50;;;;;;;;;;5035111;27;95646;-73
2022/03/22 01:52:13;;;;;;;42.13;25.75;;;;;;;;;;5026337;27;96950;-73
2022/03/22 01:54:39;;;;;;;54.28;25.73;;;;;;;;;;5031240;27;95458;-74
2022/03/22 01:57:07;;;;;;;56.55;26.52;;;;;;;;;;5031800;27;97286;-73
2022/03/22 01:59:34;;;;;;;52.83;28.05;;;;;;;;;;5031969;27;98061;-73
2022/03/22 02:07:31;;;;;;;55.85;26.35;;;;;;;;;;5024986;27;97367;-73
2022/03/22 02:09:57;;;;;;;51.80;26.17;;;;;;;;;;5037359;27;96695;-73
2022/03/22 02:12:24;;;;;;;52.35;26.17;;;;;;;;;;5040085;27;96089;-74
2022/03/22 02:14:53;;;;;;;51.85;25.77;;;;;;;;;;5042025;27;95335;-75
2022/03/22 02:17:20;;;;;;;58.88;26.42;;;;;;;;;;5034085;27;95884;-72
2022/03/22 02:19:47;;;;;;;49.00;25.48;;;;;;;;;;5031276;27;97285;-74
2022/03/22 02:22:16;;;;;;;47.97;26.05;;;;;;;;;;5028612;27;95190;-73
2022/03/22 02:24:42;;;;;;;53.08;25.90;;;;;;;;;;5029627;27;96914;-74
2022/03/22 02:27:09;;;;;;;48.17;25.98;;;;;;;;;;5029476;27;97267;-72
2022/03/22 02:29:35;;;;;;;54.17;26.77;;;;;;;;;;5030619;27;96539;-75
2022/03/22 02:32:02;;;;;;;50.97;26.50;;;;;;;;;;5036290;27;97190;-78
2022/03/22 02:34:29;;;;;;;49.00;25.88;;;;;;;;;;5035466;27;97531;-74
2022/03/22 02:36:59;;;;;;;48.00;24.98;;;;;;;;;;5031149;27;97024;-77
2022/03/22 02:39:25;;;;;;;46.97;24.80;;;;;;;;;;5028674;27;97284;-78
2022/03/22 02:41:52;;;;;;;45.35;24.50;;;;;;;;;;5030312;27;95385;-76
2022/03/22 02:44:19;;;;;;;49.00;24.92;;;;;;;;;;5031286;27;95763;-76
2022/03/22 02:46:46;;;;;;;49.95;25.70;;;;;;;;;;5030958;27;97004;-75
2022/03/22 02:49:15;;;;;;;63.25;26.38;;;;;;;;;;5028574;27;95715;-77
2022/03/22 02:51:41;;;;;;;45.63;24.98;;;;;;;;;;5026582;27;97098;-74
2022/03/22 02:54:08;;;;;;;49.05;26.10;;;;;;;;;;5025426;27;100043;-77
2022/03/22 02:56:35;;;;;;;48.65;25.00;;;;;;;;;;5035153;27;96003;-75
2022/03/22 02:59:03;;;;;;;57.35;26.13;;;;;;;;;;5027892;27;96101;-77
2022/03/22 03:01:32;;;;;;;53.35;27.20;;;;;;;;;;5030452;27;96035;-73
2022/03/22 03:04:00;;;;;;;49.35;25.58;;;;;;;;;;5018342;27;96738;-73
2022/03/22 03:06:28;;;;;;;50.83;25.75;;;;;;;;;;5022665;27;98070;-72
2022/03/22 03:09:01;;;;;;;55.78;25.52;;;;;;;;;;5033248;27;95380;-73
2022/03/22 03:11:27;;;;;;;48.70;24.63;;;;;;;;;;5027890;27;95581;-73
2022/03/22 03:16:41;;;;;;;53.00;25.65;;;;;;;;;;5026558;27;96431;-73
2022/03/22 03:19:08;;;;;;;50.72;24.52;;;;;;;;;;5037578;27;97133;-73
2022/03/22 03:21:34;;;;;;;52.65;25.40;;;;;;;;;;5036976;27;95396;-72
2022/03/22 03:24:01;;;;;;;56.92;25.45;;;;;;;;;;5047186;27;97398;-73
2022/03/22 03:26:27;;;;;;;49.53;25.00;;;;;;;;;;5038019;27;97536;-72
2022/03/22 03:28:53;;;;;;;49.80;24.73;;;;;;;;;;5036681;27;96884;-72
2022/03/22 03:31:20;;;;;;;50.50;25.65;;;;;;;;;;5044259;27;95743;-73
2022/03/22 03:33:46;;;;;;;61.55;25.08;;;;;;;;;;5035896;27;97246;-74
2022/03/22 03:36:12;;;;;;;45.95;25.02;;;;;;;;;;5046582;27;95160;-72
2022/03/22 03:38:42;;;;;;;50.92;25.13;;;;;;;;;;5041976;27;97197;-73
2022/03/22 03:43:57;;;;;;;47.92;24.50;;;;;;;;;;5043192;27;96793;-73
2022/03/22 03:49:08;;;;;;;54.17;24.42;;;;;;;;;;5045139;27;95291;-73
2022/03/22 03:51:35;;;;;;;49.35;24.73;;;;;;;;;;5047348;27;96724;-73
2022/03/22 03:54:02;;;;;;;56.45;25.60;;;;;;;;;;5035245;27;97317;-75
2022/03/22 03:56:29;;;;;;;50.08;24.88;;;;;;;;;;5028944;28;96053;-74
2022/03/22 03:58:57;;;;;;;50.70;24.48;;;;;;;;;;5027640;28;96803;-74
2022/03/22 04:01:25;;;;;;;47.40;25.92;;;;;;;;;;5032825;28;97462;-73
2022/03/22 04:03:51;;;;;;;48.47;25.00;;;;;;;;;;5031528;27;97002;-73
2022/03/22 04:06:18;;;;;;;49.17;24.70;;;;;;;;;;5030933;27;97924;-72
2022/03/22 04:08:44;;;;;;;51.38;25.33;;;;;;;;;;5046284;27;95409;-72
2022/03/22 04:11:10;;;;;;;50.22;23.95;;;;;;;;;;5035010;27;96851;-72
2022/03/22 04:13:37;;;;;;;54.75;24.15;;;;;;;;;;5039647;27;97300;-72
2022/03/22 04:16:03;;;;;;;50.90;26.42;;;;;;;;;;5039402;27;95894;-73
2022/03/22 04:18:30;;;;;;;46.65;23.70;;;;;;;;;;5036242;27;96836;-72
2022/03/22 04:20:56;;;;;;;45.33;24.20;;;;;;;;;;5033550;27;97716;-73
2022/03/22 04:23:22;;;;;;;46.13;24.10;;;;;;;;;;5054119;27;95537;-74
2022/03/22 04:25:49;;;;;;;58.78;26.50;;;;;;;;;;5039871;27;97495;-73
2022/03/22 04:33:45;;;;;;;49.78;23.48;;;;;;;;;;5042727;27;97384;-74
2022/03/22 04:36:12;;;;;;;44.67;23.40;;;;;;;;;;5033995;27;95548;-73
2022/03/22 04:38:38;;;;;;;40.63;22.77;;;;;;;;;;5043058;27;98314;-73
2022/03/22 04:41:05;;;;;;;48.33;24.95;;;;;;;;;;5042901;27;97293;-72
2022/03/22 04:43:31;;;;;;;48.30;24.92;;;;;;;;;;5030582;28;95359;-73
2022/03/22 04:45:57;;;;;;;47.83;25.10;;;;;;;;;;5033690;27;96754;-73
2022/03/22 04:48:23;;;;;;;52.33;24.67;;;;;;;;;;5030813;27;95445;-73
2022/03/22 04:56:43;;;;;;;48.03;25.20;;;;;;;;;;5029119;27;96918;-73
2022/03/22 04:59:06;;;;;;;45.50;23.33;;;;;;;;;;5030214;28;97034;-76
2022/03/22 05:01:32;;;;;;;44.10;23.00;;;;;;;;;;5030863;27;97336;-75
2022/03/22 05:03:58;;;;;;;49.45;23.90;;;;;;;;;;5044997;27;96478;-73
2022/03/22 05:06:28;;;;;;;46.30;24.67;;;;;;;;;;5035790;27;96949;-76
2022/03/22 05:08:55;;;;;;;51.10;24.08;;;;;;;;;;5041062;27;97273;-74
2022/03/22 05:11:21;;;;;;;44.30;23.80;;;;;;;;;;5037449;27;97352;-76
2022/03/22 05:13:48;;;;;;;46.60;23.95;;;;;;;;;;5042115;27;97489;-76
2022/03/22 18:19:05;;;;;;;31.17;15.63;;;;;;;;;;5101308;27;96566;-75
2022/03/22 18:21:31;;;;;;;42.33;16.55;;;;;;;;;;5100650;27;97589;-74
2022/03/22 18:23:58;;;;;;;37.58;16.30;;;;;;;;;;5105306;27;96128;-76
2022/03/22 18:26:24;;;;;;;38.33;15.88;;;;;;;;;;5103869;27;96785;-77
2022/03/22 18:28:51;;;;;;;35.15;16.58;;;;;;;;;;5104768;27;97315;-74
2022/03/22 18:31:17;;;;;;;35.45;15.95;;;;;;;;;;5105470;27;95740;-73
2022/03/22 18:33:43;;;;;;;38.13;17.73;;;;;;;;;;5099273;27;96853;-73
2022/03/22 18:36:10;;;;;;;43.88;20.08;;;;;;;;;;5103838;27;97341;-75
2022/03/22 18:38:36;;;;;;;38.97;19.30;;;;;;;;;;5100751;27;95795;-73
2022/03/22 18:41:02;;;;;;;42.08;18.05;;;;;;;;;;5093342;27;97284;-73
2022/03/22 18:43:34;;;;;;;36.45;17.67;;;;;;;;;;5105764;27;95467;-73
2022/03/22 18:46:01;;;;;;;36.45;18.13;;;;;;;;;;5104916;27;96063;-76
2022/03/22 18:48:27;;;;;;;31.25;17.60;;;;;;;;;;5103768;27;96203;-75
2022/03/22 18:50:55;;;;;;;39.53;18.02;;;;;;;;;;5104907;27;95788;-74
2022/03/22 18:53:22;;;;;;;39.83;18.40;;;;;;;;;;5104331;27;96095;-75
2022/03/22 18:55:48;;;;;;;37.67;17.40;;;;;;;;;;5105273;27;97563;-74
2022/03/22 18:58:15;;;;;;;44.90;18.92;;;;;;;;;;5105149;27;95276;-74
2022/03/22 19:00:43;;;;;;;40.42;18.40;;;;;;;;;;5107248;27;96872;-73
2022/03/22 19:03:11;;;;;;;38.10;18.38;;;;;;;;;;5104987;27;95505;-77
2022/03/22 19:05:38;;;;;;;41.90;18.45;;;;;;;;;;5104417;27;96114;-75
2022/03/22 19:08:04;;;;;;;44.35;18.17;;;;;;;;;;5101861;27;97381;-77
2022/03/22 19:10:31;;;;;;;36.47;17.77;;;;;;;;;;5092969;27;95395;-75
2022/03/22 19:12:57;;;;;;;35.38;17.95;;;;;;;;;;5105542;27;96763;-78
2022/03/22 19:15:24;;;;;;;46.47;18.55;;;;;;;;;;5104899;27;97351;-73
2022/03/22 19:17:52;;;;;;;43.42;17.85;;;;;;;;;;5104309;27;95285;-77
2022/03/22 19:20:19;;;;;;;34.85;17.88;;;;;;;;;;5105586;27;97023;-74
2022/03/22 19:22:48;;;;;;;35.63;18.13;;;;;;;;;;5107377;27;97342;-76
2022/03/22 19:25:15;;;;;;;37.45;18.85;;;;;;;;;;5100709;27;97524;-75
2022/03/22 19:27:43;;;;;;;45.40;18.67;;;;;;;;;;5101099;27;97330;-77
2022/03/22 19:30:10;;;;;;;37.67;18.55;;;;;;;;;;5072359;27;95739;-74
2022/03/22 19:35:26;;;;;;;38.05;18.70;;;;;;;;;;5090147;27;97537;-74
2022/03/22 19:37:54;;;;;;;53.05;18.65;;;;;;;;;;5084335;27;96472;-74
2022/03/22 19:40:20;;;;;;;46.45;20.10;;;;;;;;;;5090871;27;96684;-75
2022/03/22 19:42:47;;;;;;;48.88;18.95;;;;;;;;;;5090755;27;97524;-74
2022/03/22 19:45:14;;;;;;;40.20;18.92;;;;;;;;;;5083123;27;95635;-76
2022/03/22 19:47:41;;;;;;;42.22;17.85;;;;;;;;;;5085350;27;97816;-76
2022/03/22 19:50:07;;;;;;;50.47;18.27;;;;;;;;;;5074690;27;95472;-76
2022/03/22 19:52:34;;;;;;;50.67;19.55;;;;;;;;;;5090005;27;96625;-78
2022/03/22 19:55:01;;;;;;;40.00;17.83;;;;;;;;;;5072213;27;97383;-77
2022/03/22 19:57:29;;;;;;;35.78;17.38;;;;;;;;;;5088401;27;96654;-75
2022/03/22 19:59:55;;;;;;;32.78;16.80;;;;;;;;;;5089581;27;97259;-76
2022/03/22 20:02:22;;;;;;;42.35;17.67;;;;;;;;;;5089686;27;97399;-74
2022/03/22 20:04:49;;;;;;;51.83;18.10;;;;;;;;;;5089567;27;97232;-78
2022/03/22 20:07:15;;;;;;;40.60;17.90;;;;;;;;;;5064725;27;96822;-76
2022/03/22 20:09:41;;;;;;;43.30;17.95;;;;;;;;;;5088075;27;95635;-78
2022/03/22 20:12:08;;;;;;;33.25;15.85;;;;;;;;;;5089500;27;96870;-74
2022/03/22 20:14:37;;;;;;;31.90;16.20;;;;;;;;;;5088469;27;96263;-78
2022/03/22 20:17:05;;;;;;;43.78;16.35;;;;;;;;;;5078678;27;95894;-75
2022/03/22 20:19:33;;;;;;;34.78;15.95;;;;;;;;;;5087646;27;96939;-77
2022/03/22 20:22:00;;;;;;;49.97;16.80;;;;;;;;;;5088401;27;97606;-77
2022/03/22 20:24:27;;;;;;;44.72;16.33;;;;;;;;;;5087284;27;96309;-77
2022/03/22 20:26:53;;;;;;;33.20;15.63;;;;;;;;;;5089852;27;96390;-75
2022/03/22 20:29:19;;;;;;;27.02;15.50;;;;;;;;;;5092094;27;95693;-75
2022/03/22 20:31:46;;;;;;;29.63;15.82;;;;;;;;;;5088612;27;96408;-75
2022/03/22 20:34:12;;;;;;;38.97;15.55;;;;;;;;;;5068260;27;96220;-74
2022/03/22 20:36:38;;;;;;;36.72;17.27;;;;;;;;;;5088751;27;95369;-74
2022/03/22 20:39:05;;;;;;;38.35;16.05;;;;;;;;;;5088822;27;96690;-73
2022/03/22 20:41:32;;;;;;;36.03;16.52;;;;;;;;;;5082265;27;97687;-74
2022/03/22 20:43:58;;;;;;;32.15;16.70;;;;;;;;;;5090335;27;96566;-74
2022/03/22 20:46:25;;;;;;;30.77;16.88;;;;;;;;;;5084776;27;97007;-77
2022/03/22 20:48:51;;;;;;;34.05;17.23;;;;;;;;;;5093089;27;97203;-75
2022/03/22 20:51:17;;;;;;;30.98;16.92;;;;;;;;;;5089668;27;96743;-78
2022/03/22 20:53:44;;;;;;;38.95;17.15;;;;;;;;;;5087043;27;96586;-76
2022/03/22 20:59:04;;;;;;;32.83;16.92;;;;;;;;;;5086590;27;97075;-76
2022/03/22 21:01:31;;;;;;;45.22;17.13;;;;;;;;;;5088461;27;96968;-76
2022/03/22 21:03:59;;;;;;;34.17;16.73;;;;;;;;;;5070739;27;96149;-76
2022/03/22 21:06:27;;;;;;;35.90;16.70;;;;;;;;;;5069052;27;96729;-76
2022/03/22 21:08:53;;;;;;;33.92;15.10;;;;;;;;;;5083991;27;96616;-76
2022/03/22 21:11:20;;;;;;;28.98;15.13;;;;;;;;;;5092598;27;95305;-76
2022/03/22 21:13:47;;;;;;;24.50;14.55;;;;;;;;;;5087191;27;96278;-74
2022/03/22 21:16:13;;;;;;;29.83;16.20;;;;;;;;;;5088709;27;96994;-74
2022/03/22 21:18:40;;;;;;;32.90;16.83;;;;;;;;;;5089412;27;96917;-74
2022/03/22 21:21:07;;;;;;;33.75;19.40;;;;;;;;;;5088409;27;97266;-75
2022/03/22 21:23:36;;;;;;;35.13;17.88;;;;;;;;;;5087863;27;95690;-74
2022/03/22 21:26:06;;;;;;;35.33;17.92;;;;;;;;;;5087224;27;96536;-73
2022/03/22 21:28:36;;;;;;;27.77;15.35;;;;;;;;;;5087169;27;97391;-74
2022/03/22 21:31:04;;;;;;;38.60;17.92;;;;;;;;;;5084589;27;95344;-73
2022/03/22 21:33:30;;;;;;;36.78;15.70;;;;;;;;;;5092189;27;96830;-73
2022/03/22 21:35:58;;;;;;;28.33;16.77;;;;;;;;;;5087226;27;95733;-74
2022/03/22 21:38:28;;;;;;;44.22;20.45;;;;;;;;;;5088392;27;98204;-75
2022/03/22 21:40:56;;;;;;;39.92;18.30;;;;;;;;;;5089500;27;97223;-74
2022/03/22 21:43:23;;;;;;;38.28;19.30;;;;;;;;;;5088061;27;95470;-73
2022/03/22 21:45:49;;;;;;;40.97;18.70;;;;;;;;;;5089771;27;96734;-76
2022/03/22 21:48:16;;;;;;;42.03;18.35;;;;;;;;;;5073199;27;97561;-73
2022/03/22 21:50:43;;;;;;;34.45;17.35;;;;;;;;;;5088412;27;95397;-74
2022/03/22 21:53:11;;;;;;;35.15;16.30;;;;;;;;;;5088348;27;96868;-73
2022/03/22 21:55:39;;;;;;;34.55;15.63;;;;;;;;;;5092892;27;97298;-74
2022/03/22 21:58:06;;;;;;;31.92;16.40;;;;;;;;;;5089328;27;96712;-74
2022/03/22 22:00:33;;;;;;;29.25;15.82;;;;;;;;;;5089337;27;97308;-76
2022/03/22 22:02:59;;;;;;;34.75;16.90;;;;;;;;;;5088575;27;96137;-73
2022/03/22 22:05:26;;;;;;;36.55;16.95;;;;;;;;;;5089174;27;96711;-75
2022/03/22 22:07:52;;;;;;;37.42;17.55;;;;;;;;;;5089517;27;96895;-76
2022/03/22 22:10:19;;;;;;;41.28;16.50;;;;;;;;;;5088933;27;95461;-75
2022/03/22 22:12:46;;;;;;;29.15;15.60;;;;;;;;;;5089012;27;95640;-75
2022/03/22 22:15:12;;;;;;;33.72;16.08;;;;;;;;;;5089153;27;97300;-75
2022/03/22 22:17:39;;;;;;;31.55;16.42;;;;;;;;;;5091279;27;96337;-77
2022/03/22 22:20:11;;;;;;;39.28;16.83;;;;;;;;;;5085237;27;97421;-76
2022/03/22 22:22:37;;;;;;;35.20;16.33;;;;;;;;;;5088802;27;95680;-77
2022/03/22 22:25:04;;;;;;;26.05;15.88;;;;;;;;;;5070010;27;96765;-75
2022/03/22 22:27:31;;;;;;;34.15;15.80;;;;;;;;;;5089156;27;96195;-75
2022/03/22 22:29:57;;;;;;;32.17;16.85;;;;;;;;;;5089623;27;95563;-74
2022/03/22 22:35:08;;;;;;;30.85;16.98;;;;;;;;;;5087443;27;97073;-75
2022/03/22 22:37:35;;;;;;;35.97;17.48;;;;;;;;;;5092416;27;95305;-74
2022/03/22 22:40:04;;;;;;;39.55;17.58;;;;;;;;;;5088424;27;97232;-75
2022/03/22 22:42:30;;;;;;;34.55;18.23;;;;;;;;;;5071339;27;96024;-76
2022/03/22 22:44:57;;;;;;;36.60;18.60;;;;;;;;;;5089078;27;96908;-75
2022/03/22 22:47:23;;;;;;;29.52;17.88;;;;;;;;;;5088350;27;97383;-75
2022/03/22 22:49:51;;;;;;;49.65;19.65;;;;;;;;;;5089393;27;95335;-75
2022/03/22 22:52:18;;;;;;;42.25;19.65;;;;;;;;;;5076057;27;97282;-76
2022/03/22 22:54:45;;;;;;;35.80;18.30;;;;;;;;;;5088329;27;97442;-75
2022/03/22 22:57:11;;;;;;;41.30;18.30;;;;;;;;;;5088386;27;95698;-74
2022/03/22 22:59:37;;;;;;;44.75;19.50;;;;;;;;;;5090487;27;96707;-76
2022/03/22 23:02:04;;;;;;;39.22;19.00;;;;;;;;;;5088574;27;95440;-77
2022/03/22 23:04:31;;;;;;;37.05;18.95;;;;;;;;;;5090235;27;97180;-76
2022/03/22 23:12:27;;;;;;;34.92;17.33;;;;;;;;;;5089728;27;97018;-79
2022/03/22 23:15:39;;;;;;;41.92;18.30;;;;;;;;;;5027175;27;95862;-77
2022/03/22 23:18:07;;;;;;;41.05;17.67;;;;;;;;;;4996142;28;97341;-76
2022/03/22 23:20:33;;;;;;;35.70;16.80;;;;;;;;;;5008632;28;95525;-75
2022/03/22 23:23:00;;;;;;;35.40;18.60;;;;;;;;;;5009016;28;96725;-77
2022/03/22 23:25:27;;;;;;;31.17;17.77;;;;;;;;;;5006493;28;97374;-76
2022/03/22 23:27:54;;;;;;;38.55;18.10;;;;;;;;;;5007715;28;95223;-76
2022/03/22 23:30:20;;;;;;;34.47;18.30;;;;;;;;;;5016022;28;96935;-77
2022/03/22 23:32:46;;;;;;;38.15;18.83;;;;;;;;;;5011796;28;97316;-77
2022/03/22 23:35:15;;;;;;;32.13;17.52;;;;;;;;;;5014002;28;96067;-77
2022/03/22 23:37:41;;;;;;;41.42;17.95;;;;;;;;;;5016804;28;97614;-76
2022/03/22 23:40:08;;;;;;;40.13;17.10;;;;;;;;;;5016894;28;95457;-76
2022/03/22 23:42:34;;;;;;;31.98;17.75;;;;;;;;;;5009370;28;97398;-75
2022/03/22 23:45:00;;;;;;;48.45;18.30;;;;;;;;;;4996158;28;97285;-75
2022/03/22 23:47:26;;;;;;;33.42;17.73;;;;;;;;;;5013793;28;95244;-75
2022/03/22 23:49:53;;;;;;;33.33;18.27;;;;;;;;;;5008872;28;96787;-74
2022/03/22 23:52:20;;;;;;;34.38;18.33;;;;;;;;;;5018479;28;97274;-76
2022/03/22 23:54:46;;;;;;;34.40;18.10;;;;;;;;;;5002674;28;96030;-76
2022/03/22 23:57:12;;;;;;;36.78;17.45;;;;;;;;;;5018358;28;96615;-76
2022/03/22 23:59:39;;;;;;;32.40;18.05;;;;;;;;;;5019320;28;95505;-76
